Terminal Aerodrome Forecast
Issued by NWS Northern Indiana

Home | Current Version | Previous Version | Text Only | Print | Product List | Glossary Off
Versions: 1 2 3 4 5 6 7 8 9 10 11 12 13 14 15 16 17 18

553
FTUS43 KIWX 170520
TAFFWA
TAF
KFWA 170520Z 1706/1806 15002KT P6SM OVC020
     FM171000 12004KT P6SM OVC015
     FM171800 15013KT P6SM BKN200
     FM180300 18013KT P6SM -RA OVC050 WS020/21060KT=

USA.gov is the U.S. government's official web portal to all federal, state and local government web resources and services.